Shaw Crest, New Jersey
Current Conditions -  °F | °C
As of 9:55 PM on Sunday 23 Nov 2014 (Local Time) from KWWD Reporting Station
Overcast Overcast  
Wind Chill: 57°   Ceiling: 4900
Heat Index: 57°   Visibility: 10mi
Dew Point: 52°   Wind: 13mph
Humidity: 82%   Direction: 130°SE
Pressure: 29.99"   Gusts: 17mph
Location:  38.9808°N, 74.8281°W
Report Text: KWWD 240255Z AUTO 13011G15KT 10SM OVC049 14/11 A2999 RMK AO1 57037
Loading
Personal Weather Stations






























Interactive Weather Map New forecast layout! Learn more

10-Day Weather Forecast

Advertisements
Track Severe Weather on mobile